sensor_id;sensor_type;location;lat;lon;timestamp;P1;durP1;ratioP1;P2;durP2;ratioP2
41623;SDS011;27319;50.306;18.926;2023-04-01T00:00:32;13.25;;;6.60;;
41623;SDS011;27319;50.306;18.926;2023-04-01T00:04:32;12.55;;;7.25;;
41623;SDS011;27319;50.306;18.926;2023-04-01T00:08:33;11.57;;;5.45;;
41623;SDS011;27319;50.306;18.926;2023-04-01T00:12:34;12.13;;;6.25;;
41623;SDS011;27319;50.306;18.926;2023-04-01T00:16:35;12.60;;;5.95;;
41623;SDS011;27319;50.306;18.926;2023-04-01T00:19:35;14.02;;;6.75;;
41623;SDS011;27319;50.306;18.926;2023-04-01T00:23:36;9.70;;;6.10;;
41623;SDS011;27319;50.306;18.926;2023-04-01T00:27:37;12.30;;;5.50;;
41623;SDS011;27319;50.306;18.926;2023-04-01T00:30:37;13.82;;;6.00;;
41623;SDS011;27319;50.306;18.926;2023-04-01T00:34:38;11.18;;;5.15;;
41623;SDS011;27319;50.306;18.926;2023-04-01T00:38:39;13.10;;;5.22;;
41623;SDS011;27319;50.306;18.926;2023-04-01T00:42:40;11.75;;;5.50;;
41623;SDS011;27319;50.306;18.926;2023-04-01T00:46:41;12.82;;;5.68;;
41623;SDS011;27319;50.306;18.926;2023-04-01T00:50:43;12.85;;;6.45;;
41623;SDS011;27319;50.306;18.926;2023-04-01T00:54:43;9.73;;;5.43;;
41623;SDS011;27319;50.306;18.926;2023-04-01T00:58:45;12.88;;;6.57;;
41623;SDS011;27319;50.306;18.926;2023-04-01T01:02:45;12.07;;;5.97;;
41623;SDS011;27319;50.306;18.926;2023-04-01T01:05:54;12.98;;;5.93;;
41623;SDS011;27319;50.306;18.926;2023-04-01T01:09:45;11.90;;;5.80;;
41623;SDS011;27319;50.306;18.926;2023-04-01T01:13:47;8.95;;;5.13;;
41623;SDS011;27319;50.306;18.926;2023-04-01T01:21:38;9.70;;;6.53;;
41623;SDS011;27319;50.306;18.926;2023-04-01T01:25:18;9.88;;;6.32;;
41623;SDS011;27319;50.306;18.926;2023-04-01T01:36:59;11.95;;;7.05;;
41623;SDS011;27319;50.306;18.926;2023-04-01T01:40:06;11.88;;;6.72;;
41623;SDS011;27319;50.306;18.926;2023-04-01T01:44:07;10.57;;;7.57;;
41623;SDS011;27319;50.306;18.926;2023-04-01T01:48:07;13.00;;;7.10;;
41623;SDS011;27319;50.306;18.926;2023-04-01T01:52:08;11.10;;;7.00;;
41623;SDS011;27319;50.306;18.926;2023-04-01T01:56:10;11.65;;;7.70;;
41623;SDS011;27319;50.306;18.926;2023-04-01T02:00:10;19.60;;;9.15;;
41623;SDS011;27319;50.306;18.926;2023-04-01T02:04:11;14.65;;;8.65;;
41623;SDS011;27319;50.306;18.926;2023-04-01T02:08:20;14.40;;;8.10;;
41623;SDS011;27319;50.306;18.926;2023-04-01T02:12:15;14.63;;;7.07;;
41623;SDS011;27319;50.306;18.926;2023-04-01T02:15:17;9.98;;;7.00;;
41623;SDS011;27319;50.306;18.926;2023-04-01T02:18:21;12.20;;;7.20;;
41623;SDS011;27319;50.306;18.926;2023-04-01T02:22:29;12.25;;;6.93;;
41623;SDS011;27319;50.306;18.926;2023-04-01T02:30:13;11.50;;;7.03;;
41623;SDS011;27319;50.306;18.926;2023-04-01T02:34:13;10.35;;;6.82;;
41623;SDS011;27319;50.306;18.926;2023-04-01T02:38:14;9.98;;;6.60;;
41623;SDS011;27319;50.306;18.926;2023-04-01T02:42:15;12.27;;;6.20;;
41623;SDS011;27319;50.306;18.926;2023-04-01T02:46:16;12.73;;;6.60;;
41623;SDS011;27319;50.306;18.926;2023-04-01T02:50:16;12.73;;;6.82;;
41623;SDS011;27319;50.306;18.926;2023-04-01T02:54:18;9.77;;;6.53;;
41623;SDS011;27319;50.306;18.926;2023-04-01T02:58:18;11.70;;;6.57;;
41623;SDS011;27319;50.306;18.926;2023-04-01T03:02:19;10.90;;;6.43;;
41623;SDS011;27319;50.306;18.926;2023-04-01T03:06:20;9.52;;;5.97;;
41623;SDS011;27319;50.306;18.926;2023-04-01T03:10:21;12.23;;;7.00;;
41623;SDS011;27319;50.306;18.926;2023-04-01T03:14:21;13.85;;;7.57;;
41623;SDS011;27319;50.306;18.926;2023-04-01T03:18:22;12.88;;;6.82;;
41623;SDS011;27319;50.306;18.926;2023-04-01T03:22:23;9.75;;;6.75;;
41623;SDS011;27319;50.306;18.926;2023-04-01T03:25:51;11.68;;;6.07;;
41623;SDS011;27319;50.306;18.926;2023-04-01T03:29:52;10.55;;;6.43;;
41623;SDS011;27319;50.306;18.926;2023-04-01T03:33:53;12.05;;;6.85;;
41623;SDS011;27319;50.306;18.926;2023-04-01T03:37:54;14.68;;;7.75;;
41623;SDS011;27319;50.306;18.926;2023-04-01T03:41:54;12.82;;;7.15;;
41623;SDS011;27319;50.306;18.926;2023-04-01T03:45:55;11.25;;;7.05;;
41623;SDS011;27319;50.306;18.926;2023-04-01T03:49:59;9.82;;;6.25;;
41623;SDS011;27319;50.306;18.926;2023-04-01T03:54:00;10.35;;;6.50;;
41623;SDS011;27319;50.306;18.926;2023-04-01T03:58:01;8.60;;;6.97;;
41623;SDS011;27319;50.306;18.926;2023-04-01T04:01:13;9.60;;;6.57;;
41623;SDS011;27319;50.306;18.926;2023-04-01T04:04:21;9.65;;;6.50;;
41623;SDS011;27319;50.306;18.926;2023-04-01T04:07:22;13.90;;;7.47;;
41623;SDS011;27319;50.306;18.926;2023-04-01T04:10:23;14.07;;;8.30;;
41623;SDS011;27319;50.306;18.926;2023-04-01T04:14:24;17.40;;;9.50;;
41623;SDS011;27319;50.306;18.926;2023-04-01T04:18:25;17.00;;;9.02;;
41623;SDS011;27319;50.306;18.926;2023-04-01T04:22:25;11.43;;;7.22;;
41623;SDS011;27319;50.306;18.926;2023-04-01T04:26:26;11.27;;;6.53;;
41623;SDS011;27319;50.306;18.926;2023-04-01T04:30:27;11.00;;;6.22;;
41623;SDS011;27319;50.306;18.926;2023-04-01T04:34:28;11.13;;;6.65;;
41623;SDS011;27319;50.306;18.926;2023-04-01T04:38:29;18.17;;;8.82;;
41623;SDS011;27319;50.306;18.926;2023-04-01T04:42:30;16.13;;;8.40;;
41623;SDS011;27319;50.306;18.926;2023-04-01T04:46:30;10.98;;;6.35;;
41623;SDS011;27319;50.306;18.926;2023-04-01T04:50:31;12.85;;;8.23;;
41623;SDS011;27319;50.306;18.926;2023-04-01T04:54:32;13.18;;;6.88;;
41623;SDS011;27319;50.306;18.926;2023-04-01T04:58:33;10.48;;;6.05;;
41623;SDS011;27319;50.306;18.926;2023-04-01T05:02:34;13.38;;;8.30;;
41623;SDS011;27319;50.306;18.926;2023-04-01T05:06:35;11.45;;;7.05;;
41623;SDS011;27319;50.306;18.926;2023-04-01T05:10:35;10.25;;;7.15;;
41623;SDS011;27319;50.306;18.926;2023-04-01T05:14:36;11.57;;;6.60;;
41623;SDS011;27319;50.306;18.926;2023-04-01T05:18:37;13.57;;;7.63;;
41623;SDS011;27319;50.306;18.926;2023-04-01T05:21:38;13.80;;;7.78;;
41623;SDS011;27319;50.306;18.926;2023-04-01T05:25:39;15.93;;;7.15;;
41623;SDS011;27319;50.306;18.926;2023-04-01T05:29:43;16.80;;;10.95;;
41623;SDS011;27319;50.306;18.926;2023-04-01T05:33:44;19.27;;;11.20;;
41623;SDS011;27319;50.306;18.926;2023-04-01T05:37:44;14.88;;;8.88;;
41623;SDS011;27319;50.306;18.926;2023-04-01T05:41:45;10.25;;;6.10;;
41623;SDS011;27319;50.306;18.926;2023-04-01T05:45:46;12.55;;;5.80;;
41623;SDS011;27319;50.306;18.926;2023-04-01T05:49:46;11.35;;;6.20;;
41623;SDS011;27319;50.306;18.926;2023-04-01T05:52:47;9.75;;;6.78;;
41623;SDS011;27319;50.306;18.926;2023-04-01T05:55:48;8.98;;;6.40;;
41623;SDS011;27319;50.306;18.926;2023-04-01T05:58:50;13.02;;;7.20;;
41623;SDS011;27319;50.306;18.926;2023-04-01T06:01:53;10.63;;;6.47;;
41623;SDS011;27319;50.306;18.926;2023-04-01T06:04:56;10.80;;;6.07;;
41623;SDS011;27319;50.306;18.926;2023-04-01T06:08:12;11.60;;;6.32;;
41623;SDS011;27319;50.306;18.926;2023-04-01T06:11:18;10.93;;;6.60;;
41623;SDS011;27319;50.306;18.926;2023-04-01T06:15:36;12.63;;;5.75;;
41623;SDS011;27319;50.306;18.926;2023-04-01T06:26:29;10.77;;;6.43;;
41623;SDS011;27319;50.306;18.926;2023-04-01T06:30:29;12.77;;;7.13;;
41623;SDS011;27319;50.306;18.926;2023-04-01T06:49:29;11.88;;;6.85;;
41623;SDS011;27319;50.306;18.926;2023-04-01T06:57:31;12.93;;;6.70;;
41623;SDS011;27319;50.306;18.926;2023-04-01T07:01:28;11.63;;;6.88;;
41623;SDS011;27319;50.306;18.926;2023-04-01T07:05:27;11.90;;;6.80;;
41623;SDS011;27319;50.306;18.926;2023-04-01T07:09:30;13.27;;;7.30;;
41623;SDS011;27319;50.306;18.926;2023-04-01T07:13:45;13.27;;;7.10;;
41623;SDS011;27319;50.306;18.926;2023-04-01T07:17:48;15.00;;;7.37;;
41623;SDS011;27319;50.306;18.926;2023-04-01T07:20:54;16.17;;;8.73;;
41623;SDS011;27319;50.306;18.926;2023-04-01T07:25:03;15.43;;;8.18;;
41623;SDS011;27319;50.306;18.926;2023-04-01T07:29:05;14.55;;;9.85;;
41623;SDS011;27319;50.306;18.926;2023-04-01T07:37:28;17.90;;;9.77;;
41623;SDS011;27319;50.306;18.926;2023-04-01T07:41:08;13.55;;;8.85;;
41623;SDS011;27319;50.306;18.926;2023-04-01T07:45:42;15.85;;;9.80;;
41623;SDS011;27319;50.306;18.926;2023-04-01T07:57:08;18.85;;;12.10;;
41623;SDS011;27319;50.306;18.926;2023-04-01T08:12:17;19.90;;;9.63;;
41623;SDS011;27319;50.306;18.926;2023-04-01T08:19:53;10.45;;;6.40;;
41623;SDS011;27319;50.306;18.926;2023-04-01T08:23:07;13.90;;;7.75;;
41623;SDS011;27319;50.306;18.926;2023-04-01T08:26:30;19.05;;;14.18;;
41623;SDS011;27319;50.306;18.926;2023-04-01T08:30:38;15.65;;;11.25;;
41623;SDS011;27319;50.306;18.926;2023-04-01T08:34:21;9.18;;;6.60;;
41623;SDS011;27319;50.306;18.926;2023-04-01T08:38:26;13.65;;;11.07;;
41623;SDS011;27319;50.306;18.926;2023-04-01T09:26:34;7.50;;;5.35;;
41623;SDS011;27319;50.306;18.926;2023-04-01T09:30:24;10.52;;;7.75;;
41623;SDS011;27319;50.306;18.926;2023-04-01T09:37:52;5.55;;;4.35;;
41623;SDS011;27319;50.306;18.926;2023-04-01T09:45:42;6.05;;;4.30;;
41623;SDS011;27319;50.306;18.926;2023-04-01T09:53:32;6.30;;;3.80;;
41623;SDS011;27319;50.306;18.926;2023-04-01T10:23:27;9.80;;;5.70;;
41623;SDS011;27319;50.306;18.926;2023-04-01T10:56:34;7.85;;;4.85;;
41623;SDS011;27319;50.306;18.926;2023-04-01T11:00:35;9.63;;;6.97;;
41623;SDS011;27319;50.306;18.926;2023-04-01T11:07:58;9.63;;;5.70;;
41623;SDS011;27319;50.306;18.926;2023-04-01T11:15:26;5.93;;;3.97;;
41623;SDS011;27319;50.306;18.926;2023-04-01T11:19:05;9.00;;;5.80;;
41623;SDS011;27319;50.306;18.926;2023-04-01T11:29:39;6.78;;;4.38;;
41623;SDS011;27319;50.306;18.926;2023-04-01T11:33:22;7.32;;;4.82;;
41623;SDS011;27319;50.306;18.926;2023-04-01T11:37:31;6.68;;;4.20;;
41623;SDS011;27319;50.306;18.926;2023-04-01T11:45:35;4.72;;;3.22;;
41623;SDS011;27319;50.306;18.926;2023-04-01T12:07:21;11.85;;;6.30;;
41623;SDS011;27319;50.306;18.926;2023-04-01T12:11:12;10.13;;;6.38;;
41623;SDS011;27319;50.306;18.926;2023-04-01T12:18:42;13.17;;;8.33;;
41623;SDS011;27319;50.306;18.926;2023-04-01T12:22:42;7.40;;;4.95;;
41623;SDS011;27319;50.306;18.926;2023-04-01T12:44:45;7.85;;;5.13;;
41623;SDS011;27319;50.306;18.926;2023-04-01T12:48:29;4.68;;;3.35;;
41623;SDS011;27319;50.306;18.926;2023-04-01T12:55:45;7.40;;;4.45;;
41623;SDS011;27319;50.306;18.926;2023-04-01T13:15:14;5.93;;;4.25;;
41623;SDS011;27319;50.306;18.926;2023-04-01T13:22:20;5.55;;;3.60;;
41623;SDS011;27319;50.306;18.926;2023-04-01T13:25:34;6.25;;;3.47;;
41623;SDS011;27319;50.306;18.926;2023-04-01T13:40:00;6.72;;;3.83;;
41623;SDS011;27319;50.306;18.926;2023-04-01T13:43:57;9.30;;;6.00;;
41623;SDS011;27319;50.306;18.926;2023-04-01T13:48:00;6.72;;;4.00;;
41623;SDS011;27319;50.306;18.926;2023-04-01T14:06:49;12.68;;;7.40;;
41623;SDS011;27319;50.306;18.926;2023-04-01T14:21:38;9.70;;;5.10;;
41623;SDS011;27319;50.306;18.926;2023-04-01T14:32:53;8.77;;;5.70;;
41623;SDS011;27319;50.306;18.926;2023-04-01T14:47:09;15.88;;;8.30;;
41623;SDS011;27319;50.306;18.926;2023-04-01T14:51:21;9.57;;;6.53;;
41623;SDS011;27319;50.306;18.926;2023-04-01T14:54:59;13.60;;;7.47;;
41623;SDS011;27319;50.306;18.926;2023-04-01T14:59:00;11.68;;;7.13;;
41623;SDS011;27319;50.306;18.926;2023-04-01T15:02:44;9.82;;;5.90;;
41623;SDS011;27319;50.306;18.926;2023-04-01T15:10:21;11.32;;;6.88;;
41623;SDS011;27319;50.306;18.926;2023-04-01T15:14:19;11.30;;;5.97;;
41623;SDS011;27319;50.306;18.926;2023-04-01T15:21:31;11.60;;;7.40;;
41623;SDS011;27319;50.306;18.926;2023-04-01T15:32:01;16.42;;;10.38;;
41623;SDS011;27319;50.306;18.926;2023-04-01T15:43:10;31.63;;;16.17;;
41623;SDS011;27319;50.306;18.926;2023-04-01T15:50:14;35.42;;;16.27;;
41623;SDS011;27319;50.306;18.926;2023-04-01T16:24:46;17.02;;;8.63;;
41623;SDS011;27319;50.306;18.926;2023-04-01T16:27:56;20.80;;;11.05;;
41623;SDS011;27319;50.306;18.926;2023-04-01T16:31:48;16.67;;;9.95;;
41623;SDS011;27319;50.306;18.926;2023-04-01T16:35:39;17.55;;;10.30;;
41623;SDS011;27319;50.306;18.926;2023-04-01T16:39:37;17.88;;;12.00;;
41623;SDS011;27319;50.306;18.926;2023-04-01T16:43:40;19.60;;;12.93;;
41623;SDS011;27319;50.306;18.926;2023-04-01T16:47:55;22.25;;;13.07;;
41623;SDS011;27319;50.306;18.926;2023-04-01T16:59:37;30.23;;;18.52;;
41623;SDS011;27319;50.306;18.926;2023-04-01T17:10:56;26.50;;;15.75;;
41623;SDS011;27319;50.306;18.926;2023-04-01T17:18:38;36.15;;;19.25;;
41623;SDS011;27319;50.306;18.926;2023-04-01T17:28:35;42.13;;;25.65;;
41623;SDS011;27319;50.306;18.926;2023-04-01T17:31:50;33.08;;;20.17;;
41623;SDS011;27319;50.306;18.926;2023-04-01T17:41:56;32.97;;;22.73;;
41623;SDS011;27319;50.306;18.926;2023-04-01T17:45:25;38.75;;;24.25;;
41623;SDS011;27319;50.306;18.926;2023-04-01T17:52:48;37.72;;;23.52;;
41623;SDS011;27319;50.306;18.926;2023-04-01T17:56:02;30.58;;;19.17;;
41623;SDS011;27319;50.306;18.926;2023-04-01T18:22:21;33.40;;;21.33;;
41623;SDS011;27319;50.306;18.926;2023-04-01T18:26:04;34.05;;;21.20;;
41623;SDS011;27319;50.306;18.926;2023-04-01T18:30:14;48.70;;;27.80;;
41623;SDS011;27319;50.306;18.926;2023-04-01T18:38:13;40.28;;;24.42;;
41623;SDS011;27319;50.306;18.926;2023-04-01T18:45:45;33.45;;;21.48;;
41623;SDS011;27319;50.306;18.926;2023-04-01T18:53:20;35.85;;;22.17;;
41623;SDS011;27319;50.306;18.926;2023-04-01T18:57:00;33.58;;;18.67;;
41623;SDS011;27319;50.306;18.926;2023-04-01T19:01:05;22.70;;;14.35;;
41623;SDS011;27319;50.306;18.926;2023-04-01T19:05:18;22.73;;;15.40;;
41623;SDS011;27319;50.306;18.926;2023-04-01T19:09:22;22.23;;;14.90;;
41623;SDS011;27319;50.306;18.926;2023-04-01T19:13:28;21.77;;;13.90;;
41623;SDS011;27319;50.306;18.926;2023-04-01T19:32:14;26.48;;;15.93;;
41623;SDS011;27319;50.306;18.926;2023-04-01T19:38:55;26.65;;;17.30;;
41623;SDS011;27319;50.306;18.926;2023-04-01T19:42:09;33.95;;;21.42;;
41623;SDS011;27319;50.306;18.926;2023-04-01T19:45:54;44.80;;;26.33;;
41623;SDS011;27319;50.306;18.926;2023-04-01T19:52:32;37.80;;;24.27;;
41623;SDS011;27319;50.306;18.926;2023-04-01T19:56:22;35.45;;;22.88;;
41623;SDS011;27319;50.306;18.926;2023-04-01T20:00:21;32.70;;;21.48;;
41623;SDS011;27319;50.306;18.926;2023-04-01T20:04:23;34.08;;;22.00;;
41623;SDS011;27319;50.306;18.926;2023-04-01T20:08:36;35.72;;;20.60;;
41623;SDS011;27319;50.306;18.926;2023-04-01T20:15:39;35.83;;;23.65;;
41623;SDS011;27319;50.306;18.926;2023-04-01T20:19:00;54.30;;;34.22;;
41623;SDS011;27319;50.306;18.926;2023-04-01T20:27:03;63.15;;;35.65;;
41623;SDS011;27319;50.306;18.926;2023-04-01T20:31:13;68.10;;;38.45;;
41623;SDS011;27319;50.306;18.926;2023-04-01T20:46:22;45.28;;;27.98;;
41623;SDS011;27319;50.306;18.926;2023-04-01T20:58:03;54.50;;;32.50;;
41623;SDS011;27319;50.306;18.926;2023-04-01T21:16:49;35.58;;;23.45;;
41623;SDS011;27319;50.306;18.926;2023-04-01T21:27:09;31.48;;;21.83;;
41623;SDS011;27319;50.306;18.926;2023-04-01T21:38:17;28.95;;;20.85;;
41623;SDS011;27319;50.306;18.926;2023-04-01T21:51:33;31.02;;;20.45;;
41623;SDS011;27319;50.306;18.926;2023-04-01T21:58:24;42.38;;;27.95;;
41623;SDS011;27319;50.306;18.926;2023-04-01T22:02:11;41.13;;;26.27;;
41623;SDS011;27319;50.306;18.926;2023-04-01T22:13:39;36.30;;;23.65;;
41623;SDS011;27319;50.306;18.926;2023-04-01T22:17:22;31.13;;;21.35;;
41623;SDS011;27319;50.306;18.926;2023-04-01T22:24:27;34.00;;;25.00;;
41623;SDS011;27319;50.306;18.926;2023-04-01T22:31:22;32.92;;;21.42;;
41623;SDS011;27319;50.306;18.926;2023-04-01T22:34:45;36.13;;;24.02;;
41623;SDS011;27319;50.306;18.926;2023-04-01T22:37:58;30.73;;;22.25;;
41623;SDS011;27319;50.306;18.926;2023-04-01T22:44:20;31.00;;;21.13;;
41623;SDS011;27319;50.306;18.926;2023-04-01T22:54:58;43.97;;;23.42;;
41623;SDS011;27319;50.306;18.926;2023-04-01T22:59:02;41.30;;;21.65;;
41623;SDS011;27319;50.306;18.926;2023-04-01T23:06:26;28.30;;;19.33;;
41623;SDS011;27319;50.306;18.926;2023-04-01T23:10:42;25.02;;;18.40;;
41623;SDS011;27319;50.306;18.926;2023-04-01T23:14:49;31.75;;;21.55;;
41623;SDS011;27319;50.306;18.926;2023-04-01T23:30:51;33.92;;;23.55;;
41623;SDS011;27319;50.306;18.926;2023-04-01T23:34:00;28.58;;;19.58;;
41623;SDS011;27319;50.306;18.926;2023-04-01T23:37:59;30.15;;;21.05;;
41623;SDS011;27319;50.306;18.926;2023-04-01T23:42:02;30.58;;;21.23;;
41623;SDS011;27319;50.306;18.926;2023-04-01T23:46:05;36.42;;;23.05;;
41623;SDS011;27319;50.306;18.926;2023-04-01T23:50:16;34.83;;;21.75;;
41623;SDS011;27319;50.306;18.926;2023-04-01T23:54:19;60.17;;;31.85;;
